createdAt,value
2022-12-27T00:01:25.516Z,12.32
2022-12-27T00:03:52.224Z,11.92
2022-12-27T00:06:19.106Z,11.86
2022-12-27T00:08:45.778Z,12.00
2022-12-27T00:11:12.598Z,12.16
2022-12-27T00:13:39.282Z,12.21
2022-12-27T00:16:05.983Z,12.16
2022-12-27T00:18:32.650Z,12.19
2022-12-27T00:20:59.301Z,12.14
2022-12-27T00:23:25.998Z,12.03
2022-12-27T00:25:52.647Z,11.94
2022-12-27T00:28:19.314Z,11.40
2022-12-27T00:30:45.955Z,11.12
2022-12-27T00:33:12.608Z,11.44
2022-12-27T00:35:39.282Z,11.51
2022-12-27T00:38:05.950Z,11.53
2022-12-27T00:40:32.651Z,11.59
2022-12-27T00:42:59.383Z,11.63
2022-12-27T00:45:26.064Z,11.73
2022-12-27T00:47:52.801Z,11.83
2022-12-27T00:50:19.514Z,11.76
2022-12-27T00:52:46.183Z,11.71
2022-12-27T00:55:12.909Z,11.61
2022-12-27T00:57:40.052Z,11.19
2022-12-27T01:00:10.363Z,11.12
2022-12-27T01:02:37.393Z,10.88
2022-12-27T01:05:04.285Z,10.95
2022-12-27T01:07:30.993Z,11.04
2022-12-27T01:09:57.680Z,11.13
2022-12-27T01:12:24.597Z,11.13
2022-12-27T01:14:51.426Z,10.80
2022-12-27T01:17:18.089Z,10.67
2022-12-27T01:19:44.729Z,10.75
2022-12-27T01:22:11.570Z,10.69
2022-12-27T01:24:38.266Z,10.67
2022-12-27T01:27:04.959Z,10.67
2022-12-27T01:29:31.725Z,10.53
2022-12-27T01:31:58.404Z,10.42
2022-12-27T01:34:25.355Z,10.39
2022-12-27T01:36:52.067Z,10.45
2022-12-27T01:39:18.736Z,10.40
2022-12-27T01:41:45.395Z,10.24
2022-12-27T01:44:12.119Z,10.16
2022-12-27T01:46:38.818Z,10.16
2022-12-27T01:49:05.470Z,10.10
2022-12-27T01:51:32.156Z,10.25
2022-12-27T01:53:58.824Z,10.28
2022-12-27T01:56:25.519Z,10.13
2022-12-27T01:58:52.182Z,10.06
2022-12-27T02:01:18.863Z,10.05
2022-12-27T02:03:45.643Z,10.12
2022-12-27T02:06:12.297Z,10.09
2022-12-27T02:08:38.964Z,9.97
2022-12-27T02:11:05.726Z,10.00
2022-12-27T02:13:32.400Z,9.98
2022-12-27T02:15:59.130Z,9.91
2022-12-27T02:18:25.815Z,9.93
2022-12-27T02:20:52.448Z,9.87
2022-12-27T02:23:19.154Z,9.90
2022-12-27T02:25:45.899Z,9.85
2022-12-27T02:28:12.634Z,9.57
2022-12-27T02:30:39.339Z,9.60
2022-12-27T02:33:06.037Z,9.44
2022-12-27T02:35:32.717Z,9.21
2022-12-27T02:37:59.423Z,9.26
2022-12-27T02:40:26.066Z,8.91
2022-12-27T02:42:52.978Z,9.01
2022-12-27T02:45:19.643Z,9.37
2022-12-27T02:47:46.369Z,9.51
2022-12-27T02:50:13.025Z,9.61
2022-12-27T02:52:39.854Z,9.25
2022-12-27T02:55:06.572Z,9.34
2022-12-27T02:57:33.257Z,9.32
2022-12-27T02:59:59.891Z,9.09
2022-12-27T03:02:26.687Z,8.92
2022-12-27T03:04:53.470Z,9.00
2022-12-27T03:07:20.323Z,8.75
2022-12-27T03:09:46.948Z,8.77
2022-12-27T03:12:13.687Z,8.82
2022-12-27T03:14:40.388Z,8.79
2022-12-27T03:17:07.259Z,8.70
2022-12-27T03:19:33.966Z,8.50
2022-12-27T03:22:00.579Z,8.36
2022-12-27T03:24:27.216Z,8.56
2022-12-27T03:26:53.908Z,8.35
2022-12-27T03:29:20.610Z,8.16
2022-12-27T03:31:47.289Z,8.01
2022-12-27T03:34:13.930Z,8.35
2022-12-27T03:36:40.566Z,8.51
2022-12-27T03:39:07.269Z,8.56
2022-12-27T03:41:33.944Z,8.52
2022-12-27T03:44:00.577Z,8.57
2022-12-27T03:46:27.268Z,8.30
2022-12-27T03:48:53.985Z,7.94
2022-12-27T03:51:20.882Z,8.04
2022-12-27T03:53:47.828Z,7.78
2022-12-27T03:56:14.515Z,8.01
2022-12-27T03:58:41.148Z,8.11
2022-12-27T04:01:07.969Z,8.12
2022-12-27T04:03:34.708Z,8.30
2022-12-27T04:06:01.439Z,8.15
2022-12-27T04:08:28.137Z,7.98
2022-12-27T04:10:54.764Z,7.75
2022-12-27T04:13:21.436Z,7.94
2022-12-27T04:15:48.172Z,8.10
2022-12-27T04:18:14.835Z,8.07
2022-12-27T04:20:41.482Z,8.12
2022-12-27T04:23:08.205Z,8.26
2022-12-27T04:25:34.918Z,8.11
2022-12-27T04:28:01.610Z,7.97
2022-12-27T04:30:28.267Z,8.02
2022-12-27T04:32:54.924Z,8.14
2022-12-27T04:35:21.535Z,8.09
2022-12-27T04:37:48.231Z,7.93
2022-12-27T04:40:14.904Z,8.00
2022-12-27T04:42:41.542Z,7.90
2022-12-27T04:45:14.862Z,7.74
2022-12-27T04:50:26.229Z,7.97
2022-12-27T04:52:52.891Z,8.17
2022-12-27T04:55:19.642Z,8.04
2022-12-27T04:57:46.310Z,8.14
2022-12-27T05:00:12.957Z,8.04
2022-12-27T05:02:39.773Z,8.12
2022-12-27T05:05:06.571Z,8.09
2022-12-27T05:07:33.255Z,7.84
2022-12-27T05:09:59.925Z,8.00
2022-12-27T05:12:26.546Z,8.33
2022-12-27T05:14:53.252Z,8.13
2022-12-27T05:17:19.887Z,8.05
2022-12-27T05:19:46.681Z,8.19
2022-12-27T05:22:13.326Z,8.04
2022-12-27T05:24:40.029Z,8.18
2022-12-27T05:27:06.730Z,8.03
2022-12-27T05:29:33.470Z,7.86
2022-12-27T05:32:00.146Z,7.98
2022-12-27T05:34:26.836Z,8.09
2022-12-27T05:36:53.555Z,8.23
2022-12-27T05:39:20.190Z,7.65
2022-12-27T05:41:46.904Z,7.89
2022-12-27T05:44:13.626Z,7.89
2022-12-27T05:46:40.354Z,7.73
2022-12-27T05:49:07.061Z,7.85
2022-12-27T05:51:33.713Z,7.92
2022-12-27T05:54:00.373Z,8.02
2022-12-27T05:56:27.001Z,7.83
2022-12-27T05:58:53.647Z,8.04
2022-12-27T06:01:20.444Z,7.67
2022-12-27T06:03:47.136Z,7.96
2022-12-27T06:06:13.810Z,7.56
2022-12-27T06:08:40.506Z,7.57
2022-12-27T06:11:07.151Z,7.65
2022-12-27T06:13:33.830Z,7.90
2022-12-27T06:16:00.564Z,8.07
2022-12-27T06:18:27.338Z,7.97
2022-12-27T06:20:54.023Z,8.01
2022-12-27T06:23:20.665Z,7.96
2022-12-27T06:25:47.383Z,8.14
2022-12-27T06:28:14.037Z,8.09
2022-12-27T06:30:40.787Z,7.95
2022-12-27T06:33:07.429Z,7.69
2022-12-27T06:35:34.193Z,7.61
2022-12-27T06:38:00.858Z,7.86
2022-12-27T06:40:27.529Z,7.94
2022-12-27T06:42:54.209Z,8.01
2022-12-27T06:45:20.847Z,8.01
2022-12-27T06:47:47.522Z,8.14
2022-12-27T06:50:14.212Z,8.19
2022-12-27T06:52:40.926Z,8.29
2022-12-27T06:55:07.582Z,8.33
2022-12-27T06:57:34.273Z,8.24
2022-12-27T07:00:00.947Z,8.16
2022-12-27T07:02:27.750Z,7.91
2022-12-27T07:04:54.470Z,8.02
2022-12-27T07:07:21.207Z,8.00
2022-12-27T07:09:47.873Z,8.20
2022-12-27T07:12:14.596Z,8.01
2022-12-27T07:14:41.277Z,8.23
2022-12-27T07:17:07.969Z,8.29
2022-12-27T07:19:34.643Z,8.22
2022-12-27T07:22:01.304Z,8.23
2022-12-27T07:24:28.041Z,8.31
2022-12-27T07:26:54.727Z,8.07
2022-12-27T07:29:21.382Z,8.10
2022-12-27T07:31:48.215Z,8.20
2022-12-27T07:34:14.969Z,8.40
2022-12-27T07:36:41.637Z,8.37
2022-12-27T07:39:08.326Z,8.81
2022-12-27T07:41:35.021Z,8.89
2022-12-27T07:44:01.705Z,9.35
2022-12-27T07:46:28.437Z,9.62
2022-12-27T07:48:55.085Z,10.19
2022-12-27T07:51:21.799Z,10.62
2022-12-27T07:53:48.459Z,10.94
2022-12-27T07:56:18.882Z,11.00
2022-12-27T07:58:48.480Z,11.12
2022-12-27T08:01:15.250Z,11.19
2022-12-27T08:03:42.104Z,11.15
2022-12-27T08:06:08.953Z,11.38
2022-12-27T08:08:35.598Z,11.32
2022-12-27T08:11:05.760Z,11.52
2022-12-27T08:13:32.671Z,11.64
2022-12-27T08:15:59.379Z,11.88
2022-12-27T08:18:26.042Z,11.94
2022-12-27T08:20:52.681Z,11.74
2022-12-27T08:23:19.341Z,11.87
2022-12-27T08:25:48.716Z,11.64
2022-12-27T08:28:15.865Z,11.77
2022-12-27T08:30:42.586Z,11.75
2022-12-27T08:33:09.246Z,12.01
2022-12-27T08:35:52.808Z,12.11
2022-12-27T08:38:20.667Z,12.18
2022-12-27T08:40:47.351Z,12.53
2022-12-27T08:43:14.033Z,12.51
2022-12-27T08:45:40.684Z,12.47
2022-12-27T08:48:07.461Z,12.52
2022-12-27T08:50:34.261Z,12.58
2022-12-27T08:53:00.921Z,12.73
2022-12-27T08:55:27.626Z,12.85
2022-12-27T08:57:54.412Z,13.00
2022-12-27T09:00:21.065Z,13.20
2022-12-27T09:02:47.804Z,13.11
2022-12-27T09:05:14.571Z,13.25
2022-12-27T09:07:41.256Z,13.47
2022-12-27T09:10:07.933Z,13.70
2022-12-27T09:12:34.617Z,13.78
2022-12-27T09:15:01.366Z,14.25
2022-12-27T09:17:28.028Z,14.39
2022-12-27T09:19:54.707Z,14.49
2022-12-27T09:22:21.410Z,13.94
2022-12-27T09:24:48.109Z,14.13
2022-12-27T09:27:14.780Z,13.81
2022-12-27T09:29:46.397Z,14.37
2022-12-27T09:32:14.895Z,14.36
2022-12-27T09:34:41.624Z,14.48
2022-12-27T09:37:08.310Z,14.13
2022-12-27T09:39:34.985Z,14.27
2022-12-27T09:44:48.319Z,14.67
2022-12-27T09:47:15.028Z,14.47
2022-12-27T09:49:41.707Z,14.87
2022-12-27T09:52:08.413Z,14.70
2022-12-27T09:54:35.094Z,14.37
2022-12-27T09:57:19.390Z,14.70
2022-12-27T09:59:46.763Z,14.75
2022-12-27T10:02:13.482Z,14.88
2022-12-27T10:05:17.903Z,14.83
2022-12-27T10:07:26.896Z,15.60
2022-12-27T10:10:15.006Z,15.59
2022-12-27T10:12:41.683Z,15.74
2022-12-27T10:15:08.321Z,15.87
2022-12-27T10:17:34.969Z,15.60
2022-12-27T10:20:01.641Z,15.79
2022-12-27T10:22:28.271Z,16.05
2022-12-27T10:24:56.477Z,16.21
2022-12-27T10:27:23.312Z,16.38
2022-12-27T10:29:50.004Z,15.94
2022-12-27T10:32:16.630Z,16.57
2022-12-27T10:34:43.278Z,16.70
2022-12-27T10:37:09.951Z,16.86
2022-12-27T10:39:36.622Z,16.77
2022-12-27T10:42:03.374Z,17.08
2022-12-27T10:44:30.083Z,17.07
2022-12-27T10:46:56.989Z,17.31
2022-12-27T10:49:23.767Z,17.36
2022-12-27T10:51:50.604Z,17.67
2022-12-27T10:54:17.303Z,17.42
2022-12-27T10:56:44.017Z,17.49
2022-12-27T10:59:10.662Z,18.05
2022-12-27T11:01:37.575Z,17.99
2022-12-27T11:04:04.348Z,18.28
2022-12-27T11:06:30.992Z,18.48
2022-12-27T11:08:57.841Z,18.00
2022-12-27T11:11:24.688Z,17.88
2022-12-27T11:13:51.420Z,17.36
2022-12-27T11:16:18.160Z,17.45
2022-12-27T11:18:44.892Z,18.05
2022-12-27T11:21:20.066Z,18.79
2022-12-27T11:23:51.288Z,18.52
2022-12-27T11:26:17.928Z,18.47
2022-12-27T11:28:44.567Z,18.43
2022-12-27T11:31:11.361Z,18.70
2022-12-27T11:33:38.077Z,18.91
2022-12-27T11:36:04.772Z,18.98
2022-12-27T11:38:31.480Z,19.32
2022-12-27T11:40:58.143Z,19.18
2022-12-27T11:43:24.841Z,19.42
2022-12-27T11:45:51.541Z,19.04
2022-12-27T11:48:18.278Z,19.44
2022-12-27T11:50:44.995Z,19.85
2022-12-27T11:53:11.688Z,20.24
2022-12-27T11:55:38.349Z,19.91
2022-12-27T11:58:05.035Z,19.97
2022-12-27T12:00:31.851Z,20.24
2022-12-27T12:02:58.666Z,20.15
2022-12-27T12:05:25.440Z,19.72
2022-12-27T12:07:53.095Z,18.91
2022-12-27T12:10:19.796Z,19.33
2022-12-27T12:12:46.436Z,18.09
2022-12-27T12:15:13.126Z,18.22
2022-12-27T12:17:39.838Z,18.38
2022-12-27T12:20:06.515Z,18.85
2022-12-27T12:22:33.226Z,19.03
2022-12-27T12:24:59.869Z,18.96
2022-12-27T12:27:26.571Z,18.74
2022-12-27T12:29:54.537Z,19.04
2022-12-27T12:32:21.181Z,19.00
2022-12-27T12:34:47.840Z,18.55
2022-12-27T12:37:14.463Z,19.10
2022-12-27T12:39:41.155Z,19.30
2022-12-27T12:42:07.825Z,19.03
2022-12-27T12:44:41.141Z,18.91
2022-12-27T12:47:09.397Z,18.63
2022-12-27T12:49:36.111Z,18.37
2022-12-27T12:52:02.818Z,17.71
2022-12-27T12:54:29.507Z,18.01
2022-12-27T12:56:56.224Z,18.40
2022-12-27T12:59:22.879Z,18.53
2022-12-27T13:01:51.185Z,18.47
2022-12-27T13:04:17.996Z,18.37
2022-12-27T13:06:45.037Z,18.31
2022-12-27T13:09:11.696Z,18.31
2022-12-27T13:11:38.356Z,18.44
2022-12-27T13:14:04.992Z,18.57
2022-12-27T13:16:31.668Z,18.35
2022-12-27T13:18:58.387Z,17.98
2022-12-27T13:21:25.116Z,17.98
2022-12-27T13:23:51.835Z,18.07
2022-12-27T13:26:18.475Z,18.08
2022-12-27T13:28:45.163Z,18.17
2022-12-27T13:31:11.907Z,17.78
2022-12-27T13:33:38.647Z,17.74
2022-12-27T13:36:05.338Z,17.45
2022-12-27T13:38:32.038Z,17.62
2022-12-27T13:40:58.716Z,17.82
2022-12-27T13:43:25.403Z,17.76
2022-12-27T13:45:52.135Z,17.77
2022-12-27T13:48:18.965Z,17.85
2022-12-27T13:50:45.611Z,17.89
2022-12-27T13:53:12.263Z,17.75
2022-12-27T13:55:38.964Z,17.60
2022-12-27T13:58:05.666Z,17.29
2022-12-27T14:00:32.332Z,17.38
2022-12-27T14:02:59.148Z,17.38
2022-12-27T14:05:25.931Z,17.30
2022-12-27T14:07:52.663Z,17.09
2022-12-27T14:10:19.349Z,17.15
2022-12-27T14:12:46.107Z,17.08
2022-12-27T14:15:12.764Z,16.96
2022-12-27T14:17:39.421Z,16.72
2022-12-27T14:20:06.227Z,16.57
2022-12-27T14:22:32.937Z,16.57
2022-12-27T14:24:59.703Z,16.56
2022-12-27T14:27:26.401Z,16.26
2022-12-27T14:29:53.107Z,16.38
2022-12-27T14:32:19.834Z,16.34
2022-12-27T14:34:46.558Z,16.24
2022-12-27T14:37:13.295Z,16.29
2022-12-27T14:39:39.949Z,16.33
2022-12-27T14:42:06.604Z,16.26
2022-12-27T14:44:33.239Z,16.17
2022-12-27T14:46:59.937Z,16.04
2022-12-27T14:49:26.697Z,16.09
2022-12-27T14:52:04.438Z,15.94
2022-12-27T14:54:35.371Z,15.70
2022-12-27T14:57:02.102Z,15.81
2022-12-27T14:59:28.804Z,15.62
2022-12-27T15:01:55.656Z,15.59
2022-12-27T15:04:22.478Z,15.45
2022-12-27T15:06:49.244Z,15.32
2022-12-27T15:09:15.965Z,15.26
2022-12-27T15:11:42.677Z,14.89
2022-12-27T15:14:09.388Z,14.86
2022-12-27T15:16:36.139Z,14.81
2022-12-27T15:19:02.844Z,14.71
2022-12-27T15:21:29.582Z,14.61
2022-12-27T15:23:56.235Z,14.37
2022-12-27T15:26:22.953Z,14.27
2022-12-27T15:28:49.669Z,14.38
2022-12-27T15:31:16.378Z,14.26
2022-12-27T15:33:43.109Z,14.14
2022-12-27T15:36:09.814Z,14.06
2022-12-27T15:38:36.840Z,13.93
2022-12-27T15:41:03.555Z,13.88
2022-12-27T15:43:30.199Z,13.66
2022-12-27T15:45:56.931Z,13.03
2022-12-27T15:48:23.577Z,13.20
2022-12-27T15:50:50.274Z,13.26
2022-12-27T15:53:16.939Z,13.30
2022-12-27T15:55:43.624Z,13.00
2022-12-27T15:58:10.365Z,13.02
2022-12-27T16:00:37.035Z,13.13
2022-12-27T16:03:03.921Z,13.14
2022-12-27T16:05:30.819Z,13.05
2022-12-27T16:07:57.510Z,12.79
2022-12-27T16:10:24.146Z,12.73
2022-12-27T16:12:50.779Z,12.62
2022-12-27T16:15:17.522Z,12.50
2022-12-27T16:17:44.186Z,12.65
2022-12-27T16:20:10.897Z,12.84
2022-12-27T16:22:37.585Z,13.03
2022-12-27T16:25:04.251Z,13.14
2022-12-27T16:27:30.919Z,13.10
2022-12-27T16:29:57.753Z,13.07
2022-12-27T16:32:24.425Z,12.87
2022-12-27T16:34:51.082Z,12.72
2022-12-27T16:37:17.700Z,12.65
2022-12-27T16:39:44.541Z,12.79
2022-12-27T16:42:11.267Z,12.84
2022-12-27T16:44:38.586Z,12.73
2022-12-27T16:47:05.428Z,12.63
2022-12-27T16:49:32.141Z,12.48
2022-12-27T16:51:58.877Z,12.27
2022-12-27T16:54:25.550Z,12.26
2022-12-27T16:56:52.215Z,12.12
2022-12-27T16:59:19.042Z,12.09
2022-12-27T17:01:45.798Z,11.82
2022-12-27T17:04:12.571Z,11.72
2022-12-27T17:06:39.225Z,11.88
2022-12-27T17:09:05.846Z,11.97
2022-12-27T17:11:32.517Z,12.09
2022-12-27T17:13:59.259Z,11.85
2022-12-27T17:16:26.047Z,12.15
2022-12-27T17:18:52.797Z,11.99
2022-12-27T17:21:21.285Z,12.19
2022-12-27T17:23:51.419Z,11.93
2022-12-27T17:26:18.149Z,11.45
2022-12-27T17:28:44.799Z,11.41
2022-12-27T17:31:11.533Z,11.43
2022-12-27T17:33:38.305Z,11.84
2022-12-27T17:36:05.166Z,11.99
2022-12-27T17:38:31.894Z,11.93
2022-12-27T17:40:58.533Z,11.88
2022-12-27T17:43:25.241Z,11.69
2022-12-27T17:45:51.923Z,11.69
2022-12-27T17:48:18.557Z,11.57
2022-12-27T17:50:45.234Z,11.59
2022-12-27T17:53:14.689Z,11.44
2022-12-27T17:55:41.588Z,11.37
2022-12-27T17:58:08.284Z,11.27
2022-12-27T18:00:35.028Z,11.19
2022-12-27T18:03:01.755Z,10.94
2022-12-27T18:05:28.447Z,10.89
2022-12-27T18:07:55.112Z,10.86
2022-12-27T18:10:21.865Z,10.72
2022-12-27T18:12:48.614Z,10.62
2022-12-27T18:15:15.270Z,10.51
2022-12-27T18:17:41.928Z,10.42
2022-12-27T18:20:08.655Z,10.32
2022-12-27T18:22:35.373Z,10.31
2022-12-27T18:25:02.083Z,10.32
2022-12-27T18:27:28.799Z,10.22
2022-12-27T18:29:57.217Z,10.13
2022-12-27T18:32:23.868Z,10.04
2022-12-27T18:34:50.607Z,10.18
2022-12-27T18:37:17.274Z,10.08
2022-12-27T18:39:44.026Z,9.89
2022-12-27T18:42:10.770Z,9.73
2022-12-27T18:44:37.672Z,9.65
2022-12-27T18:47:04.408Z,9.60
2022-12-27T18:49:31.065Z,9.68
2022-12-27T18:51:57.787Z,9.61
2022-12-27T18:54:24.547Z,9.64
2022-12-27T18:56:51.206Z,9.60
2022-12-27T18:59:17.861Z,9.63
2022-12-27T19:01:44.677Z,9.56
2022-12-27T19:04:11.396Z,9.56
2022-12-27T19:06:38.089Z,9.55
2022-12-27T19:09:04.728Z,9.53
2022-12-27T19:11:36.199Z,9.50
2022-12-27T19:14:03.211Z,9.41
2022-12-27T19:16:29.960Z,9.35
2022-12-27T19:18:56.704Z,9.32
2022-12-27T19:21:23.412Z,9.49
2022-12-27T19:23:50.040Z,9.44
2022-12-27T19:26:16.746Z,9.40
2022-12-27T19:28:43.438Z,9.32
2022-12-27T19:31:10.293Z,9.34
2022-12-27T19:33:37.099Z,9.51
2022-12-27T19:36:03.789Z,9.59
2022-12-27T19:38:30.545Z,9.43
2022-12-27T19:41:03.019Z,9.43
2022-12-27T19:43:30.664Z,9.34
2022-12-27T19:45:57.387Z,9.20
2022-12-27T19:48:24.141Z,9.09
2022-12-27T19:50:50.861Z,9.12
2022-12-27T19:53:17.620Z,9.12
2022-12-27T19:55:44.368Z,8.99
2022-12-27T19:58:11.090Z,8.92
2022-12-27T20:00:37.824Z,8.92
2022-12-27T20:03:04.575Z,8.85
2022-12-27T20:06:12.411Z,8.88
2022-12-27T20:08:18.288Z,8.79
2022-12-27T20:10:44.991Z,8.70
2022-12-27T20:13:11.776Z,8.63
2022-12-27T20:15:38.475Z,8.69
2022-12-27T20:18:07.332Z,8.33
2022-12-27T20:20:34.080Z,8.20
2022-12-27T20:23:00.909Z,8.38
2022-12-27T20:25:27.594Z,8.55
2022-12-27T20:27:54.369Z,8.52
2022-12-27T20:30:21.215Z,8.35
2022-12-27T20:32:47.936Z,8.50
2022-12-27T20:35:14.673Z,8.60
2022-12-27T20:37:41.380Z,8.46
2022-12-27T20:40:08.187Z,8.40
2022-12-27T20:42:34.849Z,8.50
2022-12-27T20:45:01.577Z,8.48
2022-12-27T20:47:28.315Z,8.36
2022-12-27T20:49:54.965Z,8.39
2022-12-27T20:52:25.770Z,8.48
2022-12-27T20:54:57.425Z,8.46
2022-12-27T20:57:24.172Z,8.34
2022-12-27T20:59:50.872Z,8.33
2022-12-27T21:02:17.668Z,8.34
2022-12-27T21:04:44.422Z,8.41
2022-12-27T21:07:13.245Z,8.31
2022-12-27T21:09:39.946Z,8.24
2022-12-27T21:12:06.668Z,8.43
2022-12-27T21:14:33.399Z,8.41
2022-12-27T21:17:00.117Z,8.23
2022-12-27T21:19:26.831Z,8.24
2022-12-27T21:21:53.508Z,8.22
2022-12-27T21:24:20.221Z,8.23
2022-12-27T21:26:46.890Z,8.25
2022-12-27T21:29:13.549Z,8.28
2022-12-27T21:31:40.179Z,8.44
2022-12-27T21:34:06.844Z,8.23
2022-12-27T21:36:33.587Z,8.05
2022-12-27T21:39:00.241Z,8.06
2022-12-27T21:41:26.907Z,8.03
2022-12-27T21:43:53.548Z,8.08
2022-12-27T21:46:20.364Z,8.13
2022-12-27T21:48:47.221Z,8.21
2022-12-27T21:51:14.012Z,8.20
2022-12-27T21:53:40.706Z,8.15
2022-12-27T21:56:07.437Z,8.20
2022-12-27T21:58:34.076Z,8.22
2022-12-27T22:01:05.057Z,8.27
2022-12-27T22:03:35.475Z,8.29
2022-12-27T22:06:02.418Z,8.30
2022-12-27T22:08:29.322Z,8.12
2022-12-27T22:10:55.998Z,8.06
2022-12-27T22:13:22.669Z,8.01
2022-12-27T22:15:49.416Z,8.08
2022-12-27T22:18:17.092Z,8.10
2022-12-27T22:20:47.048Z,8.09
2022-12-27T22:23:13.849Z,8.18
2022-12-27T22:25:40.548Z,8.12
2022-12-27T22:28:07.189Z,8.11
2022-12-27T22:30:34.027Z,8.12
2022-12-27T22:33:00.777Z,8.20
2022-12-27T22:35:27.478Z,8.12
2022-12-27T22:37:54.188Z,7.99
2022-12-27T22:40:30.577Z,8.06
2022-12-27T22:42:57.921Z,7.87
2022-12-27T22:45:24.572Z,8.04
2022-12-27T22:47:51.226Z,7.96
2022-12-27T22:50:17.981Z,7.99
2022-12-27T22:52:44.633Z,7.98
2022-12-27T22:55:11.320Z,7.97
2022-12-27T22:57:38.045Z,7.93
2022-12-27T23:00:04.730Z,7.90
2022-12-27T23:02:31.545Z,7.98
2022-12-27T23:04:58.284Z,7.83
2022-12-27T23:08:06.057Z,7.85
2022-12-27T23:10:11.606Z,7.89
2022-12-27T23:12:38.314Z,7.94
2022-12-27T23:15:05.045Z,7.92
2022-12-27T23:17:31.709Z,7.88
2022-12-27T23:19:58.362Z,7.78
2022-12-27T23:22:25.075Z,7.72
2022-12-27T23:24:51.726Z,7.63
2022-12-27T23:27:18.453Z,7.70
2022-12-27T23:29:45.152Z,7.72
2022-12-27T23:32:11.840Z,7.69
2022-12-27T23:34:38.518Z,7.73
2022-12-27T23:37:05.161Z,7.71
2022-12-27T23:39:31.855Z,7.69
2022-12-27T23:41:58.487Z,7.67
2022-12-27T23:44:34.126Z,7.64
2022-12-27T23:47:01.567Z,7.56
2022-12-27T23:49:28.415Z,7.46
2022-12-27T23:51:55.097Z,7.29
2022-12-27T23:54:21.916Z,7.59
2022-12-27T23:56:48.577Z,7.46
2022-12-27T23:59:15.216Z,7.29
